sensor_id;sensor_type;location;lat;lon;timestamp;P1;durP1;ratioP1;P2;durP2;ratioP2
26034;SDS011;13809;48.632;11.576;2023-05-02T00:01:27;5.60;;;5.10;;
26034;SDS011;13809;48.632;11.576;2023-05-02T00:06:31;5.37;;;4.97;;
26034;SDS011;13809;48.632;11.576;2023-05-02T00:11:35;5.47;;;5.07;;
26034;SDS011;13809;48.632;11.576;2023-05-02T00:16:39;5.73;;;5.33;;
26034;SDS011;13809;48.632;11.576;2023-05-02T00:21:42;4.37;;;4.07;;
26034;SDS011;13809;48.632;11.576;2023-05-02T00:26:49;4.57;;;4.20;;
26034;SDS011;13809;48.632;11.576;2023-05-02T00:31:52;4.17;;;3.67;;
26034;SDS011;13809;48.632;11.576;2023-05-02T00:36:56;4.30;;;4.00;;
26034;SDS011;13809;48.632;11.576;2023-05-02T00:42:00;5.00;;;4.60;;
26034;SDS011;13809;48.632;11.576;2023-05-02T00:47:04;5.73;;;5.23;;
26034;SDS011;13809;48.632;11.576;2023-05-02T00:52:07;4.47;;;4.17;;
26034;SDS011;13809;48.632;11.576;2023-05-02T00:57:12;9.13;;;6.90;;
26034;SDS011;13809;48.632;11.576;2023-05-02T01:02:21;9.77;;;6.77;;
26034;SDS011;13809;48.632;11.576;2023-05-02T01:07:46;16.47;;;9.47;;
26034;SDS011;13809;48.632;11.576;2023-05-02T01:13:02;18.97;;;9.80;;
26034;SDS011;13809;48.632;11.576;2023-05-02T01:18:09;13.83;;;8.73;;
26034;SDS011;13809;48.632;11.576;2023-05-02T01:23:16;11.10;;;6.93;;
26034;SDS011;13809;48.632;11.576;2023-05-02T01:28:30;12.80;;;8.40;;
26034;SDS011;13809;48.632;11.576;2023-05-02T01:33:41;11.27;;;7.90;;
26034;SDS011;13809;48.632;11.576;2023-05-02T01:38:46;10.20;;;7.70;;
26034;SDS011;13809;48.632;11.576;2023-05-02T01:43:50;7.93;;;5.50;;
26034;SDS011;13809;48.632;11.576;2023-05-02T01:48:56;6.63;;;6.03;;
26034;SDS011;13809;48.632;11.576;2023-05-02T01:54:03;5.60;;;5.10;;
26034;SDS011;13809;48.632;11.576;2023-05-02T01:59:10;4.87;;;4.47;;
26034;SDS011;13809;48.632;11.576;2023-05-02T02:04:15;5.20;;;4.80;;
26034;SDS011;13809;48.632;11.576;2023-05-02T02:09:21;5.03;;;4.63;;
26034;SDS011;13809;48.632;11.576;2023-05-02T02:14:24;5.17;;;4.77;;
26034;SDS011;13809;48.632;11.576;2023-05-02T02:19:30;6.90;;;6.20;;
26034;SDS011;13809;48.632;11.576;2023-05-02T02:24:35;9.43;;;7.50;;
26034;SDS011;13809;48.632;11.576;2023-05-02T02:29:39;8.50;;;7.40;;
26034;SDS011;13809;48.632;11.576;2023-05-02T02:34:44;6.93;;;6.33;;
26034;SDS011;13809;48.632;11.576;2023-05-02T02:39:49;5.63;;;5.20;;
26034;SDS011;13809;48.632;11.576;2023-05-02T02:45:00;5.70;;;5.20;;
26034;SDS011;13809;48.632;11.576;2023-05-02T02:50:13;5.40;;;5.00;;
26034;SDS011;13809;48.632;11.576;2023-05-02T02:55:24;5.53;;;5.07;;
26034;SDS011;13809;48.632;11.576;2023-05-02T03:00:35;5.27;;;4.77;;
26034;SDS011;13809;48.632;11.576;2023-05-02T03:05:41;4.47;;;4.17;;
26034;SDS011;13809;48.632;11.576;2023-05-02T03:10:45;4.43;;;4.07;;
26034;SDS011;13809;48.632;11.576;2023-05-02T03:21:35;5.13;;;4.73;;
26034;SDS011;13809;48.632;11.576;2023-05-02T03:26:39;5.67;;;5.23;;
26034;SDS011;13809;48.632;11.576;2023-05-02T03:31:43;5.23;;;4.80;;
26034;SDS011;13809;48.632;11.576;2023-05-02T03:36:47;5.27;;;4.87;;
26034;SDS011;13809;48.632;11.576;2023-05-02T03:41:50;5.13;;;4.73;;
26034;SDS011;13809;48.632;11.576;2023-05-02T03:46:54;6.00;;;5.20;;
26034;SDS011;13809;48.632;11.576;2023-05-02T03:51:58;5.10;;;4.70;;
26034;SDS011;13809;48.632;11.576;2023-05-02T03:57:02;4.83;;;4.53;;
26034;SDS011;13809;48.632;11.576;2023-05-02T04:02:05;5.33;;;4.83;;
26034;SDS011;13809;48.632;11.576;2023-05-02T04:07:10;5.17;;;4.77;;
26034;SDS011;13809;48.632;11.576;2023-05-02T04:12:18;4.97;;;4.67;;
26034;SDS011;13809;48.632;11.576;2023-05-02T04:17:21;5.57;;;5.17;;
26034;SDS011;13809;48.632;11.576;2023-05-02T04:22:26;4.60;;;4.30;;
26034;SDS011;13809;48.632;11.576;2023-05-02T04:27:29;5.87;;;4.70;;
26034;SDS011;13809;48.632;11.576;2023-05-02T04:32:32;5.40;;;4.90;;
26034;SDS011;13809;48.632;11.576;2023-05-02T04:37:37;4.13;;;3.83;;
26034;SDS011;13809;48.632;11.576;2023-05-02T04:42:40;4.77;;;4.37;;
26034;SDS011;13809;48.632;11.576;2023-05-02T04:47:43;4.03;;;3.73;;
26034;SDS011;13809;48.632;11.576;2023-05-02T04:52:48;5.13;;;4.73;;
26034;SDS011;13809;48.632;11.576;2023-05-02T04:57:51;4.93;;;4.53;;
26034;SDS011;13809;48.632;11.576;2023-05-02T05:02:54;4.83;;;4.43;;
26034;SDS011;13809;48.632;11.576;2023-05-02T05:08:02;5.10;;;4.70;;
26034;SDS011;13809;48.632;11.576;2023-05-02T05:13:05;5.00;;;4.50;;
26034;SDS011;13809;48.632;11.576;2023-05-02T05:18:08;4.87;;;4.53;;
26034;SDS011;13809;48.632;11.576;2023-05-02T05:23:13;5.10;;;4.73;;
26034;SDS011;13809;48.632;11.576;2023-05-02T05:28:16;4.90;;;4.60;;
26034;SDS011;13809;48.632;11.576;2023-05-02T05:33:20;4.87;;;4.50;;
26034;SDS011;13809;48.632;11.576;2023-05-02T05:38:25;4.17;;;3.87;;
26034;SDS011;13809;48.632;11.576;2023-05-02T05:43:28;4.77;;;4.40;;
26034;SDS011;13809;48.632;11.576;2023-05-02T05:48:31;4.50;;;4.20;;
26034;SDS011;13809;48.632;11.576;2023-05-02T05:53:36;4.70;;;4.37;;
26034;SDS011;13809;48.632;11.576;2023-05-02T05:58:39;4.60;;;4.30;;
26034;SDS011;13809;48.632;11.576;2023-05-02T06:03:44;5.17;;;4.67;;
26034;SDS011;13809;48.632;11.576;2023-05-02T06:08:49;5.50;;;5.00;;
26034;SDS011;13809;48.632;11.576;2023-05-02T06:13:52;6.07;;;5.57;;
26034;SDS011;13809;48.632;11.576;2023-05-02T06:18:56;6.33;;;5.83;;
26034;SDS011;13809;48.632;11.576;2023-05-02T06:24:00;5.30;;;4.80;;
26034;SDS011;13809;48.632;11.576;2023-05-02T06:29:03;6.30;;;5.80;;
26034;SDS011;13809;48.632;11.576;2023-05-02T06:34:06;6.10;;;5.60;;
26034;SDS011;13809;48.632;11.576;2023-05-02T06:39:11;6.57;;;6.07;;
26034;SDS011;13809;48.632;11.576;2023-05-02T06:44:14;7.00;;;6.50;;
26034;SDS011;13809;48.632;11.576;2023-05-02T06:49:17;7.37;;;6.87;;
26034;SDS011;13809;48.632;11.576;2023-05-02T06:54:22;8.17;;;7.47;;
26034;SDS011;13809;48.632;11.576;2023-05-02T06:59:25;8.50;;;7.80;;
26034;SDS011;13809;48.632;11.576;2023-05-02T07:04:28;7.50;;;6.77;;
26034;SDS011;13809;48.632;11.576;2023-05-02T07:09:33;7.43;;;6.83;;
26034;SDS011;13809;48.632;11.576;2023-05-02T07:14:36;6.77;;;6.27;;
26034;SDS011;13809;48.632;11.576;2023-05-02T07:19:40;8.07;;;7.37;;
26034;SDS011;13809;48.632;11.576;2023-05-02T07:24:47;7.93;;;7.23;;
26034;SDS011;13809;48.632;11.576;2023-05-02T07:29:50;6.97;;;6.47;;
26034;SDS011;13809;48.632;11.576;2023-05-02T07:34:53;7.43;;;6.83;;
26034;SDS011;13809;48.632;11.576;2023-05-02T07:39:58;8.13;;;7.53;;
26034;SDS011;13809;48.632;11.576;2023-05-02T07:45:02;7.30;;;6.70;;
26034;SDS011;13809;48.632;11.576;2023-05-02T07:50:06;7.67;;;7.07;;
26034;SDS011;13809;48.632;11.576;2023-05-02T07:55:11;7.80;;;7.10;;
26034;SDS011;13809;48.632;11.576;2023-05-02T08:00:15;8.20;;;7.40;;
26034;SDS011;13809;48.632;11.576;2023-05-02T08:05:19;7.63;;;6.93;;
26034;SDS011;13809;48.632;11.576;2023-05-02T08:10:24;7.67;;;7.07;;
26034;SDS011;13809;48.632;11.576;2023-05-02T08:15:28;8.43;;;7.63;;
26034;SDS011;13809;48.632;11.576;2023-05-02T08:20:31;7.73;;;7.13;;
26034;SDS011;13809;48.632;11.576;2023-05-02T08:25:36;7.43;;;6.83;;
26034;SDS011;13809;48.632;11.576;2023-05-02T08:30:39;7.70;;;7.10;;
26034;SDS011;13809;48.632;11.576;2023-05-02T08:35:42;8.10;;;7.50;;
26034;SDS011;13809;48.632;11.576;2023-05-02T08:40:47;7.50;;;6.90;;
26034;SDS011;13809;48.632;11.576;2023-05-02T08:45:50;8.07;;;7.47;;
26034;SDS011;13809;48.632;11.576;2023-05-02T08:50:57;7.73;;;7.13;;
26034;SDS011;13809;48.632;11.576;2023-05-02T08:56:03;7.30;;;6.80;;
26034;SDS011;13809;48.632;11.576;2023-05-02T09:01:08;8.37;;;7.53;;
26034;SDS011;13809;48.632;11.576;2023-05-02T09:06:14;8.73;;;8.10;;
26034;SDS011;13809;48.632;11.576;2023-05-02T09:11:20;8.43;;;7.73;;
26034;SDS011;13809;48.632;11.576;2023-05-02T09:16:24;9.33;;;8.63;;
26034;SDS011;13809;48.632;11.576;2023-05-02T09:21:34;9.40;;;8.60;;
26034;SDS011;13809;48.632;11.576;2023-05-02T09:26:39;8.63;;;7.83;;
26034;SDS011;13809;48.632;11.576;2023-05-02T09:31:42;9.97;;;9.17;;
26034;SDS011;13809;48.632;11.576;2023-05-02T09:36:56;11.97;;;10.97;;
26034;SDS011;13809;48.632;11.576;2023-05-02T09:42:01;12.23;;;11.03;;
26034;SDS011;13809;48.632;11.576;2023-05-02T09:47:04;10.83;;;9.97;;
26034;SDS011;13809;48.632;11.576;2023-05-02T09:52:09;12.03;;;11.03;;
26034;SDS011;13809;48.632;11.576;2023-05-02T09:57:14;11.33;;;10.40;;
26034;SDS011;13809;48.632;11.576;2023-05-02T10:02:18;8.73;;;7.93;;
26034;SDS011;13809;48.632;11.576;2023-05-02T10:07:23;9.83;;;8.93;;
26034;SDS011;13809;48.632;11.576;2023-05-02T10:12:28;9.03;;;8.23;;
26034;SDS011;13809;48.632;11.576;2023-05-02T10:17:37;9.97;;;9.07;;
26034;SDS011;13809;48.632;11.576;2023-05-02T10:22:43;9.00;;;8.30;;
26034;SDS011;13809;48.632;11.576;2023-05-02T10:27:50;8.93;;;8.23;;
26034;SDS011;13809;48.632;11.576;2023-05-02T10:32:53;8.93;;;8.23;;
26034;SDS011;13809;48.632;11.576;2023-05-02T10:38:01;8.10;;;7.50;;
26034;SDS011;13809;48.632;11.576;2023-05-02T10:43:06;8.37;;;7.57;;
26034;SDS011;13809;48.632;11.576;2023-05-02T10:48:16;9.10;;;8.40;;
26034;SDS011;13809;48.632;11.576;2023-05-02T10:53:27;7.77;;;7.20;;
26034;SDS011;13809;48.632;11.576;2023-05-02T10:58:34;8.00;;;7.20;;
26034;SDS011;13809;48.632;11.576;2023-05-02T11:03:53;8.00;;;7.30;;
26034;SDS011;13809;48.632;11.576;2023-05-02T11:14:45;8.07;;;7.43;;
26034;SDS011;13809;48.632;11.576;2023-05-02T11:25:36;8.93;;;8.13;;
26034;SDS011;13809;48.632;11.576;2023-05-02T11:30:44;9.60;;;8.70;;
26034;SDS011;13809;48.632;11.576;2023-05-02T11:35:51;8.40;;;7.73;;
26034;SDS011;13809;48.632;11.576;2023-05-02T11:40:55;9.50;;;8.80;;
26034;SDS011;13809;48.632;11.576;2023-05-02T11:46:01;9.03;;;8.17;;
26034;SDS011;13809;48.632;11.576;2023-05-02T11:51:06;8.80;;;8.10;;
26034;SDS011;13809;48.632;11.576;2023-05-02T11:56:09;8.93;;;8.23;;
26034;SDS011;13809;48.632;11.576;2023-05-02T12:01:14;9.20;;;8.50;;
26034;SDS011;13809;48.632;11.576;2023-05-02T12:06:18;9.00;;;8.30;;
26034;SDS011;13809;48.632;11.576;2023-05-02T12:11:22;8.20;;;7.57;;
26034;SDS011;13809;48.632;11.576;2023-05-02T12:16:27;9.47;;;8.77;;
26034;SDS011;13809;48.632;11.576;2023-05-02T12:21:31;9.03;;;8.33;;
26034;SDS011;13809;48.632;11.576;2023-05-02T12:26:35;8.43;;;7.73;;
26034;SDS011;13809;48.632;11.576;2023-05-02T12:31:39;8.43;;;7.73;;
26034;SDS011;13809;48.632;11.576;2023-05-02T12:36:52;7.70;;;7.10;;
26034;SDS011;13809;48.632;11.576;2023-05-02T12:41:55;7.93;;;7.33;;
26034;SDS011;13809;48.632;11.576;2023-05-02T12:47:00;8.53;;;7.73;;
26034;SDS011;13809;48.632;11.576;2023-05-02T12:52:03;7.07;;;6.57;;
26034;SDS011;13809;48.632;11.576;2023-05-02T12:57:07;8.27;;;7.67;;
26034;SDS011;13809;48.632;11.576;2023-05-02T13:02:11;7.20;;;6.70;;
26034;SDS011;13809;48.632;11.576;2023-05-02T13:07:15;8.00;;;7.30;;
26034;SDS011;13809;48.632;11.576;2023-05-02T13:12:18;6.30;;;5.80;;
26034;SDS011;13809;48.632;11.576;2023-05-02T13:17:23;6.43;;;6.00;;
26034;SDS011;13809;48.632;11.576;2023-05-02T13:22:26;6.57;;;6.07;;
26034;SDS011;13809;48.632;11.576;2023-05-02T13:27:30;6.60;;;6.10;;
26034;SDS011;13809;48.632;11.576;2023-05-02T13:32:36;7.00;;;6.50;;
26034;SDS011;13809;48.632;11.576;2023-05-02T13:37:40;7.03;;;6.50;;
26034;SDS011;13809;48.632;11.576;2023-05-02T13:42:43;6.57;;;5.97;;
26034;SDS011;13809;48.632;11.576;2023-05-02T13:47:48;5.83;;;5.37;;
26034;SDS011;13809;48.632;11.576;2023-05-02T13:52:51;6.40;;;5.90;;
26034;SDS011;13809;48.632;11.576;2023-05-02T13:57:54;6.17;;;5.73;;
26034;SDS011;13809;48.632;11.576;2023-05-02T14:02:59;4.97;;;4.57;;
26034;SDS011;13809;48.632;11.576;2023-05-02T14:08:02;5.40;;;5.00;;
26034;SDS011;13809;48.632;11.576;2023-05-02T14:13:05;5.20;;;4.90;;
26034;SDS011;13809;48.632;11.576;2023-05-02T14:18:10;5.23;;;4.83;;
26034;SDS011;13809;48.632;11.576;2023-05-02T14:23:13;4.83;;;4.50;;
26034;SDS011;13809;48.632;11.576;2023-05-02T14:28:17;5.23;;;4.87;;
26034;SDS011;13809;48.632;11.576;2023-05-02T14:33:21;5.83;;;5.43;;
26034;SDS011;13809;48.632;11.576;2023-05-02T14:38:24;5.00;;;4.60;;
26034;SDS011;13809;48.632;11.576;2023-05-02T14:43:27;5.60;;;5.13;;
26034;SDS011;13809;48.632;11.576;2023-05-02T14:48:32;3.00;;;2.70;;
26034;SDS011;13809;48.632;11.576;2023-05-02T14:53:35;1.90;;;1.80;;
26034;SDS011;13809;48.632;11.576;2023-05-02T14:58:39;3.27;;;1.70;;
26034;SDS011;13809;48.632;11.576;2023-05-02T15:03:44;2.43;;;1.70;;
26034;SDS011;13809;48.632;11.576;2023-05-02T15:09:05;2.77;;;1.70;;
26034;SDS011;13809;48.632;11.576;2023-05-02T15:14:09;2.33;;;1.70;;
26034;SDS011;13809;48.632;11.576;2023-05-02T15:19:13;1.60;;;1.50;;
26034;SDS011;13809;48.632;11.576;2023-05-02T15:24:19;2.00;;;1.80;;
26034;SDS011;13809;48.632;11.576;2023-05-02T15:29:22;1.80;;;1.70;;
26034;SDS011;13809;48.632;11.576;2023-05-02T15:34:27;1.80;;;1.70;;
26034;SDS011;13809;48.632;11.576;2023-05-02T15:39:30;3.20;;;1.90;;
26034;SDS011;13809;48.632;11.576;2023-05-02T15:44:33;2.00;;;1.90;;
26034;SDS011;13809;48.632;11.576;2023-05-02T15:49:38;1.90;;;1.80;;
26034;SDS011;13809;48.632;11.576;2023-05-02T15:54:41;1.80;;;1.70;;
26034;SDS011;13809;48.632;11.576;2023-05-02T15:59:45;1.73;;;1.63;;
26034;SDS011;13809;48.632;11.576;2023-05-02T16:04:49;1.40;;;1.40;;
26034;SDS011;13809;48.632;11.576;2023-05-02T16:09:52;1.70;;;1.60;;
26034;SDS011;13809;48.632;11.576;2023-05-02T16:14:55;1.70;;;1.60;;
26034;SDS011;13809;48.632;11.576;2023-05-02T16:20:00;1.60;;;1.50;;
26034;SDS011;13809;48.632;11.576;2023-05-02T16:25:04;2.20;;;1.97;;
26034;SDS011;13809;48.632;11.576;2023-05-02T16:30:08;2.10;;;2.00;;
26034;SDS011;13809;48.632;11.576;2023-05-02T16:35:13;2.73;;;1.90;;
26034;SDS011;13809;48.632;11.576;2023-05-02T16:40:16;2.10;;;2.00;;
26034;SDS011;13809;48.632;11.576;2023-05-02T16:45:19;2.33;;;2.20;;
26034;SDS011;13809;48.632;11.576;2023-05-02T16:50:24;5.97;;;5.37;;
26034;SDS011;13809;48.632;11.576;2023-05-02T16:55:27;3.67;;;3.37;;
26034;SDS011;13809;48.632;11.576;2023-05-02T17:00:30;3.30;;;3.00;;
26034;SDS011;13809;48.632;11.576;2023-05-02T17:05:35;3.23;;;2.60;;
26034;SDS011;13809;48.632;11.576;2023-05-02T17:10:38;2.90;;;2.60;;
26034;SDS011;13809;48.632;11.576;2023-05-02T17:15:42;2.90;;;2.70;;
26034;SDS011;13809;48.632;11.576;2023-05-02T17:20:46;3.30;;;3.10;;
26034;SDS011;13809;48.632;11.576;2023-05-02T17:25:50;3.20;;;3.00;;
26034;SDS011;13809;48.632;11.576;2023-05-02T17:30:53;3.93;;;3.10;;
26034;SDS011;13809;48.632;11.576;2023-05-02T17:36:01;3.03;;;2.70;;
26034;SDS011;13809;48.632;11.576;2023-05-02T17:41:04;2.80;;;2.60;;
26034;SDS011;13809;48.632;11.576;2023-05-02T17:46:07;3.87;;;3.07;;
26034;SDS011;13809;48.632;11.576;2023-05-02T17:51:12;3.03;;;2.80;;
26034;SDS011;13809;48.632;11.576;2023-05-02T17:56:15;6.77;;;5.83;;
26034;SDS011;13809;48.632;11.576;2023-05-02T18:01:19;8.70;;;7.50;;
26034;SDS011;13809;48.632;11.576;2023-05-02T18:06:23;4.20;;;3.80;;
26034;SDS011;13809;48.632;11.576;2023-05-02T18:11:27;3.43;;;3.23;;
26034;SDS011;13809;48.632;11.576;2023-05-02T18:16:32;3.13;;;2.93;;
26034;SDS011;13809;48.632;11.576;2023-05-02T18:21:38;3.67;;;3.37;;
26034;SDS011;13809;48.632;11.576;2023-05-02T18:26:41;3.40;;;3.10;;
26034;SDS011;13809;48.632;11.576;2023-05-02T18:31:44;4.30;;;3.30;;
26034;SDS011;13809;48.632;11.576;2023-05-02T18:36:54;3.90;;;3.60;;
26034;SDS011;13809;48.632;11.576;2023-05-02T18:42:02;3.50;;;3.30;;
26034;SDS011;13809;48.632;11.576;2023-05-02T18:47:06;3.87;;;3.57;;
26034;SDS011;13809;48.632;11.576;2023-05-02T18:52:11;3.87;;;3.57;;
26034;SDS011;13809;48.632;11.576;2023-05-02T18:57:14;3.60;;;3.30;;
26034;SDS011;13809;48.632;11.576;2023-05-02T19:02:17;4.03;;;3.67;;
26034;SDS011;13809;48.632;11.576;2023-05-02T19:07:23;4.17;;;3.77;;
26034;SDS011;13809;48.632;11.576;2023-05-02T19:12:28;4.43;;;4.03;;
26034;SDS011;13809;48.632;11.576;2023-05-02T19:17:31;4.23;;;3.93;;
26034;SDS011;13809;48.632;11.576;2023-05-02T19:22:35;4.17;;;3.87;;
26034;SDS011;13809;48.632;11.576;2023-05-02T19:27:39;4.17;;;3.87;;
26034;SDS011;13809;48.632;11.576;2023-05-02T19:32:42;4.17;;;3.83;;
26034;SDS011;13809;48.632;11.576;2023-05-02T19:37:47;4.40;;;4.10;;
26034;SDS011;13809;48.632;11.576;2023-05-02T19:42:50;4.20;;;3.90;;
26034;SDS011;13809;48.632;11.576;2023-05-02T19:47:53;4.30;;;4.00;;
26034;SDS011;13809;48.632;11.576;2023-05-02T19:52:58;4.30;;;3.90;;
26034;SDS011;13809;48.632;11.576;2023-05-02T19:58:01;4.17;;;3.87;;
26034;SDS011;13809;48.632;11.576;2023-05-02T20:03:05;4.43;;;4.13;;
26034;SDS011;13809;48.632;11.576;2023-05-02T20:08:13;3.87;;;3.50;;
26034;SDS011;13809;48.632;11.576;2023-05-02T20:13:17;4.03;;;3.83;;
26034;SDS011;13809;48.632;11.576;2023-05-02T20:18:20;4.47;;;4.07;;
26034;SDS011;13809;48.632;11.576;2023-05-02T20:23:24;4.43;;;4.03;;
26034;SDS011;13809;48.632;11.576;2023-05-02T20:28:28;5.30;;;4.33;;
26034;SDS011;13809;48.632;11.576;2023-05-02T20:33:31;4.13;;;3.83;;
26034;SDS011;13809;48.632;11.576;2023-05-02T20:38:46;3.40;;;3.10;;
26034;SDS011;13809;48.632;11.576;2023-05-02T20:43:49;3.60;;;3.30;;
26034;SDS011;13809;48.632;11.576;2023-05-02T20:48:54;4.00;;;3.70;;
26034;SDS011;13809;48.632;11.576;2023-05-02T20:54:01;3.83;;;3.53;;
26034;SDS011;13809;48.632;11.576;2023-05-02T20:59:04;3.60;;;3.30;;
26034;SDS011;13809;48.632;11.576;2023-05-02T21:04:07;4.47;;;3.90;;
26034;SDS011;13809;48.632;11.576;2023-05-02T21:09:11;5.00;;;4.13;;
26034;SDS011;13809;48.632;11.576;2023-05-02T21:14:15;3.97;;;3.57;;
26034;SDS011;13809;48.632;11.576;2023-05-02T21:19:19;4.63;;;4.20;;
26034;SDS011;13809;48.632;11.576;2023-05-02T21:24:23;4.30;;;4.00;;
26034;SDS011;13809;48.632;11.576;2023-05-02T21:29:27;3.87;;;3.57;;
26034;SDS011;13809;48.632;11.576;2023-05-02T21:34:30;3.10;;;2.90;;
26034;SDS011;13809;48.632;11.576;2023-05-02T21:39:34;4.10;;;3.80;;
26034;SDS011;13809;48.632;11.576;2023-05-02T21:44:38;3.37;;;3.17;;
26034;SDS011;13809;48.632;11.576;2023-05-02T21:49:41;3.93;;;3.67;;
26034;SDS011;13809;48.632;11.576;2023-05-02T21:54:46;3.10;;;2.90;;
26034;SDS011;13809;48.632;11.576;2023-05-02T21:59:53;3.00;;;2.80;;
26034;SDS011;13809;48.632;11.576;2023-05-02T22:04:56;2.80;;;2.60;;
26034;SDS011;13809;48.632;11.576;2023-05-02T22:10:00;2.70;;;2.50;;
26034;SDS011;13809;48.632;11.576;2023-05-02T22:15:05;2.90;;;2.70;;
26034;SDS011;13809;48.632;11.576;2023-05-02T22:20:11;2.90;;;2.60;;
26034;SDS011;13809;48.632;11.576;2023-05-02T22:25:17;4.07;;;2.67;;
26034;SDS011;13809;48.632;11.576;2023-05-02T22:30:20;3.03;;;2.73;;
26034;SDS011;13809;48.632;11.576;2023-05-02T22:35:23;2.83;;;2.63;;
26034;SDS011;13809;48.632;11.576;2023-05-02T22:40:28;2.80;;;2.60;;
26034;SDS011;13809;48.632;11.576;2023-05-02T22:45:32;2.90;;;2.70;;
26034;SDS011;13809;48.632;11.576;2023-05-02T22:50:37;3.37;;;3.07;;
26034;SDS011;13809;48.632;11.576;2023-05-02T22:55:41;3.00;;;2.80;;
26034;SDS011;13809;48.632;11.576;2023-05-02T23:00:44;3.30;;;3.03;;
26034;SDS011;13809;48.632;11.576;2023-05-02T23:05:48;3.50;;;3.17;;
26034;SDS011;13809;48.632;11.576;2023-05-02T23:10:52;2.70;;;2.50;;
26034;SDS011;13809;48.632;11.576;2023-05-02T23:15:56;2.67;;;2.47;;
26034;SDS011;13809;48.632;11.576;2023-05-02T23:20:59;3.00;;;2.80;;
26034;SDS011;13809;48.632;11.576;2023-05-02T23:26:07;3.00;;;2.80;;
26034;SDS011;13809;48.632;11.576;2023-05-02T23:31:10;2.90;;;2.70;;
26034;SDS011;13809;48.632;11.576;2023-05-02T23:36:14;3.30;;;3.10;;
26034;SDS011;13809;48.632;11.576;2023-05-02T23:41:19;3.20;;;2.90;;
26034;SDS011;13809;48.632;11.576;2023-05-02T23:46:22;3.30;;;3.00;;
26034;SDS011;13809;48.632;11.576;2023-05-02T23:51:26;3.07;;;2.87;;
26034;SDS011;13809;48.632;11.576;2023-05-02T23:56:31;5.20;;;3.30;;
